createdAt,value
2023-03-12T00:02:06.187Z,30.03
2023-03-12T00:04:36.049Z,25.90
2023-03-12T00:07:06.467Z,32.67
2023-03-12T00:09:37.390Z,29.90
2023-03-12T00:12:04.878Z,29.93
2023-03-12T00:14:32.810Z,40.80
2023-03-12T00:17:00.562Z,31.53
2023-03-12T00:19:28.011Z,35.63
2023-03-12T00:21:57.504Z,32.80
2023-03-12T00:24:25.347Z,31.83
2023-03-12T00:26:52.720Z,40.27
2023-03-12T00:29:20.038Z,43.40
2023-03-12T00:31:47.874Z,46.97
2023-03-12T00:34:15.695Z,38.93
2023-03-12T00:36:43.286Z,46.30
2023-03-12T00:39:10.859Z,39.93
2023-03-12T00:41:38.124Z,38.73
2023-03-12T00:44:06.392Z,51.00
2023-03-12T00:46:33.800Z,42.60
2023-03-12T00:49:01.214Z,36.13
2023-03-12T00:51:28.535Z,35.33
2023-03-12T00:53:56.407Z,33.60
2023-03-12T00:56:24.732Z,34.00
2023-03-12T00:58:52.057Z,33.50
2023-03-12T01:01:19.831Z,35.63
2023-03-12T01:03:47.944Z,39.73
2023-03-12T01:06:15.254Z,36.73
2023-03-12T01:08:42.982Z,40.13
2023-03-12T01:11:13.912Z,36.30
2023-03-12T01:13:41.242Z,37.10
2023-03-12T01:16:08.637Z,32.87
2023-03-12T01:18:36.193Z,29.57
2023-03-12T01:21:03.556Z,38.63
2023-03-12T01:23:31.106Z,26.40
2023-03-12T01:25:59.708Z,31.63
2023-03-12T01:28:27.343Z,35.23
2023-03-12T01:30:54.673Z,32.87
2023-03-12T01:33:28.405Z,37.33
2023-03-12T01:35:56.396Z,36.70
2023-03-12T01:38:23.835Z,36.27
2023-03-12T01:40:51.180Z,29.90
2023-03-12T01:43:30.555Z,38.70
2023-03-12T01:46:24.173Z,29.23
2023-03-12T01:49:08.445Z,33.23
2023-03-12T01:51:38.130Z,30.70
2023-03-12T01:54:08.053Z,20.60
2023-03-12T01:56:36.682Z,26.63
2023-03-12T01:59:07.781Z,31.20
2023-03-12T02:01:35.168Z,27.93
2023-03-12T02:04:02.765Z,41.07
2023-03-12T02:06:33.680Z,34.13
2023-03-12T02:09:02.073Z,38.67
2023-03-12T02:11:30.213Z,34.03
2023-03-12T02:13:57.611Z,37.93
2023-03-12T02:16:25.920Z,38.47
2023-03-12T02:18:55.318Z,30.67
2023-03-12T02:21:24.006Z,27.63
2023-03-12T02:24:07.670Z,36.87
2023-03-12T02:26:37.116Z,30.53
2023-03-12T02:29:05.725Z,34.47
2023-03-12T02:31:36.352Z,31.87
2023-03-12T02:34:04.080Z,29.63
2023-03-12T02:36:31.800Z,29.77
2023-03-12T02:38:59.113Z,30.43
2023-03-12T02:41:29.117Z,32.73
2023-03-12T02:43:56.478Z,31.00
2023-03-12T02:46:27.607Z,32.93
2023-03-12T02:48:55.855Z,25.43
2023-03-12T02:51:23.521Z,33.30
2023-03-12T02:53:54.809Z,35.37
2023-03-12T02:56:26.302Z,38.03
2023-03-12T02:58:54.209Z,27.50
2023-03-12T03:01:22.512Z,28.80
2023-03-12T03:03:50.151Z,35.17
2023-03-12T03:06:18.253Z,34.10
2023-03-12T03:08:45.701Z,39.60
2023-03-12T03:11:13.109Z,40.67
2023-03-12T03:13:40.996Z,31.63
2023-03-12T03:16:09.262Z,38.50
2023-03-12T03:18:36.620Z,37.97
2023-03-12T03:21:08.558Z,43.63
2023-03-12T03:23:37.393Z,33.13
2023-03-12T03:26:04.917Z,38.33
2023-03-12T03:28:32.419Z,34.17
2023-03-12T03:31:02.392Z,38.83
2023-03-12T03:33:35.680Z,39.03
2023-03-12T03:36:05.527Z,33.63
2023-03-12T03:38:36.061Z,35.53
2023-03-12T03:41:04.506Z,23.13
2023-03-12T03:43:34.393Z,25.97
2023-03-12T03:46:03.001Z,23.17
2023-03-12T03:48:34.045Z,33.57
2023-03-12T03:51:02.637Z,20.73
2023-03-12T03:53:32.823Z,34.33
2023-03-12T03:56:05.934Z,21.80
2023-03-12T03:58:33.637Z,30.40
2023-03-12T04:01:01.086Z,25.97
2023-03-12T04:03:28.714Z,35.00
2023-03-12T04:05:57.589Z,38.93
2023-03-12T04:08:25.697Z,38.17
2023-03-12T04:10:53.723Z,39.30
2023-03-12T04:13:21.717Z,32.43
2023-03-12T04:15:49.892Z,37.23
2023-03-12T04:18:17.954Z,36.67
2023-03-12T04:20:45.319Z,28.80
2023-03-12T04:23:12.653Z,40.00
2023-03-12T04:25:40.246Z,32.47
2023-03-12T04:28:07.884Z,48.80
2023-03-12T04:30:38.241Z,45.90
2023-03-12T04:33:06.562Z,39.57
2023-03-12T04:35:34.217Z,32.93
2023-03-12T04:38:02.119Z,43.03
2023-03-12T04:40:29.527Z,35.50
2023-03-12T04:42:57.068Z,31.67
2023-03-12T04:45:24.689Z,39.90
2023-03-12T04:47:51.986Z,34.23
2023-03-12T04:50:19.481Z,41.97
2023-03-12T04:52:47.044Z,30.47
2023-03-12T04:55:14.299Z,30.57
2023-03-12T04:57:41.767Z,36.43
2023-03-12T05:00:13.304Z,28.50
2023-03-12T05:02:42.177Z,33.87
2023-03-12T05:05:11.448Z,30.67
2023-03-12T05:07:39.392Z,30.10
2023-03-12T05:10:07.297Z,29.40
2023-03-12T05:12:34.633Z,43.23
2023-03-12T05:15:01.972Z,30.80
2023-03-12T05:17:29.421Z,25.50
2023-03-12T05:19:56.781Z,32.43
2023-03-12T05:22:24.164Z,35.83
2023-03-12T05:24:51.502Z,32.70
2023-03-12T05:27:20.114Z,25.20
2023-03-12T05:29:47.506Z,24.63
2023-03-12T05:32:15.587Z,23.87
2023-03-12T05:34:42.967Z,19.60
2023-03-12T05:37:10.430Z,20.33
2023-03-12T05:39:38.431Z,17.23
2023-03-12T05:42:06.497Z,21.57
2023-03-12T05:44:35.472Z,19.37
2023-03-12T05:47:02.951Z,25.73
2023-03-12T05:49:31.272Z,13.13
2023-03-12T05:51:59.044Z,14.13
2023-03-12T05:54:27.072Z,16.43
2023-03-12T05:56:56.034Z,9.07
2023-03-12T05:59:24.961Z,10.80
2023-03-12T06:01:53.710Z,12.23
2023-03-12T06:04:21.129Z,11.17
2023-03-12T06:06:48.845Z,15.87
2023-03-12T06:09:16.279Z,16.43
2023-03-12T06:11:43.587Z,13.30
2023-03-12T06:14:11.097Z,9.10
2023-03-12T06:16:38.953Z,12.88
2023-03-12T06:19:07.769Z,15.10
2023-03-12T06:21:35.930Z,30.73
2023-03-12T06:24:05.124Z,13.10
2023-03-12T06:26:40.644Z,20.27
2023-03-12T06:29:07.942Z,17.80
2023-03-12T06:31:38.405Z,14.30
2023-03-12T06:34:06.381Z,18.27
2023-03-12T06:36:33.939Z,22.63
2023-03-12T06:39:01.305Z,22.80
2023-03-12T06:41:28.975Z,17.53
2023-03-12T06:43:56.348Z,84.53
2023-03-12T06:46:25.700Z,24.80
2023-03-12T06:48:53.090Z,20.65
2023-03-12T06:51:20.469Z,14.47
2023-03-12T06:53:47.789Z,17.53
2023-03-12T06:56:15.723Z,19.80
2023-03-12T06:58:43.068Z,23.70
2023-03-12T07:01:10.591Z,18.53
2023-03-12T07:03:37.902Z,16.87
2023-03-12T07:06:05.825Z,16.60
2023-03-12T07:08:33.153Z,11.97
2023-03-12T07:11:01.908Z,12.87
2023-03-12T07:13:29.553Z,9.53
2023-03-12T07:15:56.896Z,8.10
2023-03-12T07:18:24.221Z,13.43
2023-03-12T07:20:52.513Z,13.43
2023-03-12T07:23:19.941Z,10.40
2023-03-12T07:25:47.970Z,14.37
2023-03-12T07:28:15.724Z,17.00
2023-03-12T07:30:43.028Z,15.73
2023-03-12T07:33:12.092Z,14.30
2023-03-12T07:35:40.316Z,11.27
2023-03-12T07:38:08.337Z,9.60
2023-03-12T07:40:36.149Z,8.10
2023-03-12T07:43:04.144Z,7.93
2023-03-12T07:45:33.295Z,13.47
2023-03-12T07:48:00.683Z,7.63
2023-03-12T07:50:28.035Z,9.73
2023-03-12T07:52:55.443Z,6.90
2023-03-12T07:55:22.912Z,5.53
2023-03-12T07:57:50.326Z,8.23
2023-03-12T08:00:17.990Z,9.43
2023-03-12T08:02:45.865Z,9.23
2023-03-12T08:05:13.604Z,10.23
2023-03-12T08:07:41.042Z,11.03
2023-03-12T08:10:09.228Z,7.73
2023-03-12T08:12:37.615Z,6.13
2023-03-12T08:15:06.113Z,8.63
2023-03-12T08:17:33.383Z,8.80
2023-03-12T08:20:00.683Z,6.23
2023-03-12T08:22:28.046Z,15.10
2023-03-12T08:24:55.461Z,6.23
2023-03-12T08:27:22.874Z,8.17
2023-03-12T08:29:50.297Z,10.13
2023-03-12T08:32:17.686Z,5.73
2023-03-12T08:34:45.102Z,4.77
2023-03-12T08:37:12.771Z,5.97
2023-03-12T08:39:40.083Z,8.10
2023-03-12T08:42:07.743Z,8.50
2023-03-12T08:44:35.476Z,6.27
2023-03-12T08:47:02.830Z,13.10
2023-03-12T08:49:30.143Z,6.83
2023-03-12T08:51:57.460Z,11.30
2023-03-12T08:54:24.834Z,18.67
2023-03-12T08:56:53.033Z,9.60
2023-03-12T08:59:20.803Z,11.77
2023-03-12T09:01:48.462Z,13.57
2023-03-12T09:04:16.428Z,8.23
2023-03-12T09:06:44.035Z,7.60
2023-03-12T09:09:11.560Z,12.53
2023-03-12T09:11:42.525Z,8.60
2023-03-12T09:16:58.140Z,8.70
2023-03-12T09:19:25.748Z,7.97
2023-03-12T09:21:53.117Z,10.00
2023-03-12T09:24:23.684Z,7.53
2023-03-12T09:26:51.777Z,10.67
2023-03-12T09:29:19.077Z,5.57
2023-03-12T09:31:46.390Z,20.73
2023-03-12T09:34:13.765Z,8.47
2023-03-12T09:36:41.134Z,20.40
2023-03-12T09:39:08.448Z,9.47
2023-03-12T09:41:38.909Z,8.87
2023-03-12T09:44:12.273Z,10.43
2023-03-12T09:46:42.794Z,9.30
2023-03-12T09:49:25.923Z,8.83
2023-03-12T09:51:56.103Z,9.07
2023-03-12T09:54:26.609Z,5.43
2023-03-12T09:56:55.668Z,12.57
2023-03-12T09:59:23.092Z,9.60
2023-03-12T10:01:53.197Z,7.60
2023-03-12T10:04:25.150Z,10.20
2023-03-12T10:06:52.904Z,10.27
2023-03-12T10:09:20.365Z,9.77
2023-03-12T10:12:07.185Z,13.83
2023-03-12T10:14:34.503Z,6.50
2023-03-12T10:17:17.611Z,12.93
2023-03-12T10:19:51.713Z,13.13
2023-03-12T10:22:30.516Z,9.87
2023-03-12T10:25:06.667Z,10.93
2023-03-12T10:27:37.439Z,11.70
2023-03-12T10:30:13.874Z,15.33
2023-03-12T10:32:43.595Z,9.40
2023-03-12T10:35:15.531Z,16.33
2023-03-12T10:37:48.943Z,7.50
2023-03-12T10:40:17.493Z,8.20
2023-03-12T10:42:44.823Z,9.80
2023-03-12T10:45:12.184Z,16.07
2023-03-12T10:47:39.430Z,9.77
2023-03-12T10:50:12.870Z,9.53
2023-03-12T10:52:40.382Z,9.27
2023-03-12T10:55:20.831Z,8.00
2023-03-12T10:57:48.701Z,16.07
2023-03-12T11:00:26.564Z,12.60
2023-03-12T11:02:58.889Z,11.40
2023-03-12T11:05:26.185Z,14.10
2023-03-12T11:07:54.339Z,12.87
2023-03-12T11:10:24.722Z,12.10
2023-03-12T11:12:56.952Z,13.23
2023-03-12T11:15:26.222Z,10.70
2023-03-12T11:18:06.060Z,12.93
2023-03-12T11:20:33.466Z,12.33
2023-03-12T11:23:14.089Z,14.57
2023-03-12T11:25:41.490Z,10.97
2023-03-12T11:28:13.676Z,15.20
2023-03-12T11:33:52.441Z,18.17
2023-03-12T11:36:19.722Z,14.57
2023-03-12T11:38:54.536Z,22.77
2023-03-12T11:41:27.676Z,194.63
2023-03-12T11:44:03.508Z,15.10
2023-03-12T11:46:40.102Z,12.00
2023-03-12T11:49:07.469Z,14.07
2023-03-12T11:51:47.014Z,14.63
2023-03-12T11:54:17.406Z,15.20
2023-03-12T11:56:52.419Z,13.00
2023-03-12T11:59:19.845Z,14.97
2023-03-12T12:01:57.324Z,13.73
2023-03-12T12:04:30.419Z,14.17
2023-03-12T12:07:21.100Z,7.93
2023-03-12T12:09:48.375Z,11.93
2023-03-12T12:12:21.951Z,11.77
2023-03-12T12:14:55.799Z,11.30
2023-03-12T12:17:23.068Z,10.80
2023-03-12T12:20:03.404Z,12.23
2023-03-12T12:22:42.927Z,13.63
2023-03-12T12:25:17.647Z,13.13
2023-03-12T12:27:49.666Z,13.00
2023-03-12T12:30:28.699Z,13.13
2023-03-12T12:33:04.112Z,18.07
2023-03-12T12:35:37.965Z,12.90
2023-03-12T12:38:12.356Z,14.90
2023-03-12T12:40:44.808Z,10.90
2023-03-12T12:43:32.340Z,11.43
2023-03-12T12:46:04.940Z,11.53
2023-03-12T12:48:43.934Z,16.10
2023-03-12T12:51:12.338Z,11.77
2023-03-12T12:53:39.987Z,10.53
2023-03-12T12:56:21.100Z,10.70
2023-03-12T12:58:58.717Z,9.83
2023-03-12T13:01:27.996Z,8.90
2023-03-12T13:04:03.692Z,8.40
2023-03-12T13:06:50.925Z,7.60
2023-03-12T13:09:22.306Z,10.97
2023-03-12T13:11:51.587Z,10.30
2023-03-12T13:14:24.231Z,9.90
2023-03-12T13:17:06.960Z,13.33
2023-03-12T13:19:40.623Z,14.60
2023-03-12T13:22:11.126Z,11.20
2023-03-12T13:24:44.633Z,10.50
2023-03-12T13:27:20.492Z,8.53
2023-03-12T13:29:51.402Z,10.87
2023-03-12T13:32:36.936Z,15.37
2023-03-12T13:35:08.403Z,10.87
2023-03-12T13:37:47.810Z,11.50
2023-03-12T13:40:30.495Z,12.90
2023-03-12T13:43:14.897Z,16.20
2023-03-12T13:45:55.943Z,15.50
2023-03-12T13:48:25.410Z,18.20
2023-03-12T13:50:54.992Z,14.47
2023-03-12T13:53:28.038Z,19.45
2023-03-12T13:56:07.642Z,16.37
2023-03-12T13:58:55.098Z,20.23
2023-03-12T14:01:24.651Z,14.47
2023-03-12T14:03:56.380Z,13.20
2023-03-12T14:06:25.338Z,14.53
2023-03-12T14:08:58.291Z,16.43
2023-03-12T14:11:25.686Z,14.53
2023-03-12T14:14:08.647Z,13.30
2023-03-12T14:16:46.092Z,21.37
2023-03-12T14:19:14.080Z,17.07
2023-03-12T14:21:43.367Z,19.03
2023-03-12T14:24:17.260Z,20.03
2023-03-12T14:26:47.170Z,19.13
2023-03-12T14:29:22.477Z,17.73
2023-03-12T14:31:50.078Z,25.33
2023-03-12T14:34:25.241Z,31.33
2023-03-12T14:37:05.870Z,29.10
2023-03-12T14:39:33.218Z,30.77
2023-03-12T14:42:05.307Z,30.33
2023-03-12T14:44:33.762Z,36.07
2023-03-12T14:47:14.946Z,41.20
2023-03-12T14:49:43.511Z,36.50
2023-03-12T14:52:24.500Z,38.27
2023-03-12T14:55:00.194Z,35.13
2023-03-12T14:57:27.678Z,39.83
2023-03-12T15:00:01.511Z,45.37
2023-03-12T15:02:30.834Z,46.03
2023-03-12T15:05:00.331Z,42.60
2023-03-12T15:07:39.492Z,48.23
2023-03-12T15:10:08.456Z,41.97
2023-03-12T15:12:37.403Z,44.90
2023-03-12T15:15:08.229Z,49.83
2023-03-12T15:17:36.102Z,41.80
2023-03-12T15:20:09.599Z,50.47
2023-03-12T15:22:37.697Z,43.53
2023-03-12T15:25:16.326Z,44.43
2023-03-12T15:27:43.622Z,41.90
2023-03-12T15:30:24.669Z,44.80
2023-03-12T15:33:09.412Z,42.63
2023-03-12T15:35:38.397Z,36.13
2023-03-12T15:38:06.605Z,37.50
2023-03-12T15:40:34.014Z,36.83
2023-03-12T15:43:07.547Z,36.87
2023-03-12T15:45:39.493Z,37.30
2023-03-12T15:48:17.643Z,42.57
2023-03-12T15:50:45.511Z,44.63
2023-03-12T15:53:12.851Z,46.70
2023-03-12T15:55:43.784Z,42.40
2023-03-12T15:58:31.540Z,53.23
2023-03-12T16:01:12.729Z,50.07
2023-03-12T16:03:40.865Z,54.00
2023-03-12T16:06:23.196Z,50.57
2023-03-12T16:08:52.102Z,59.03
2023-03-12T16:11:20.752Z,57.33
2023-03-12T16:13:49.202Z,53.33
2023-03-12T16:16:16.596Z,57.20
2023-03-12T16:18:44.591Z,63.30
2023-03-12T16:21:12.381Z,65.77
2023-03-12T16:23:40.056Z,57.33
2023-03-12T16:26:07.630Z,54.73
2023-03-12T16:28:36.031Z,65.97
2023-03-12T16:31:03.815Z,62.03
2023-03-12T16:33:31.298Z,67.57
2023-03-12T16:35:59.146Z,67.70
2023-03-12T16:38:26.549Z,71.50
2023-03-12T16:40:54.233Z,59.67
2023-03-12T16:43:25.653Z,71.17
2023-03-12T16:45:56.799Z,71.73
2023-03-12T16:48:27.703Z,66.73
2023-03-12T16:50:56.866Z,62.50
2023-03-12T16:53:24.588Z,63.70
2023-03-12T16:55:54.379Z,63.20
2023-03-12T16:58:22.930Z,64.17
2023-03-12T17:00:50.785Z,60.13
2023-03-12T17:03:36.424Z,59.83
2023-03-12T17:06:05.178Z,73.30
2023-03-12T17:08:32.625Z,59.53
2023-03-12T17:11:00.603Z,51.97
2023-03-12T17:13:29.498Z,64.87
2023-03-12T17:15:57.810Z,75.47
2023-03-12T17:18:25.412Z,52.10
2023-03-12T17:20:53.142Z,59.07
2023-03-12T17:23:31.819Z,56.20
2023-03-12T17:25:59.710Z,58.57
2023-03-12T17:28:27.139Z,63.77
2023-03-12T17:30:54.569Z,58.17
2023-03-12T17:33:22.098Z,53.40
2023-03-12T17:36:00.445Z,52.23
2023-03-12T17:38:28.337Z,51.93
2023-03-12T17:40:55.731Z,54.30
2023-03-12T17:43:23.259Z,43.73
2023-03-12T17:45:50.790Z,47.43
2023-03-12T17:48:19.010Z,50.87
2023-03-12T17:50:46.587Z,51.67
2023-03-12T17:53:14.067Z,47.50
2023-03-12T17:55:41.483Z,41.40
2023-03-12T17:58:08.904Z,46.90
2023-03-12T18:00:36.368Z,44.20
2023-03-12T18:03:03.817Z,36.80
2023-03-12T18:05:31.372Z,36.30
2023-03-12T18:07:58.786Z,52.73
2023-03-12T18:10:26.250Z,48.90
2023-03-12T18:12:53.632Z,40.33
2023-03-12T18:15:21.553Z,45.63
2023-03-12T18:17:52.352Z,52.80
2023-03-12T18:20:32.170Z,42.67
2023-03-12T18:23:05.008Z,45.13
2023-03-12T18:25:32.390Z,40.93
2023-03-12T18:27:59.836Z,38.13
2023-03-12T18:30:28.292Z,40.37
2023-03-12T18:32:55.878Z,46.13
2023-03-12T18:35:28.669Z,49.83
2023-03-12T18:37:56.727Z,44.97
2023-03-12T18:40:24.203Z,49.20
2023-03-12T18:42:51.669Z,52.63
2023-03-12T18:45:19.050Z,46.53
2023-03-12T18:47:50.131Z,50.20
2023-03-12T18:50:18.243Z,55.90
2023-03-12T18:52:45.911Z,48.57
2023-03-12T18:55:15.393Z,44.70
2023-03-12T18:57:43.430Z,42.23
2023-03-12T19:00:13.714Z,47.33
2023-03-12T19:02:41.889Z,48.37
2023-03-12T19:05:10.997Z,44.03
2023-03-12T19:07:39.162Z,49.77
2023-03-12T19:10:07.614Z,48.20
2023-03-12T19:12:45.335Z,46.03
2023-03-12T19:15:18.161Z,46.40
2023-03-12T19:17:45.540Z,40.90
2023-03-12T19:20:14.057Z,44.70
2023-03-12T19:22:41.428Z,46.67
2023-03-12T19:25:09.027Z,47.53
2023-03-12T19:27:36.615Z,53.63
2023-03-12T19:30:04.678Z,44.50
2023-03-12T19:32:42.314Z,44.63
2023-03-12T19:35:11.505Z,48.37
2023-03-12T19:37:38.909Z,48.97
2023-03-12T19:40:06.904Z,47.87
2023-03-12T19:42:34.385Z,58.33
2023-03-12T19:45:01.885Z,57.47
2023-03-12T19:47:33.067Z,52.57
2023-03-12T19:50:00.774Z,52.37
2023-03-12T19:52:28.285Z,52.43
2023-03-12T19:55:04.271Z,61.17
2023-03-12T19:57:33.010Z,56.53
2023-03-12T20:00:00.774Z,58.63
2023-03-12T20:02:29.017Z,55.47
2023-03-12T20:04:56.820Z,60.97
2023-03-12T20:07:24.293Z,59.87
2023-03-12T20:09:52.442Z,54.13
2023-03-12T20:12:19.990Z,49.67
2023-03-12T20:14:47.570Z,63.70
2023-03-12T20:17:15.710Z,64.45
2023-03-12T20:19:43.320Z,72.27
2023-03-12T20:22:10.732Z,59.93
2023-03-12T20:24:38.246Z,62.53
2023-03-12T20:27:05.770Z,61.60
2023-03-12T20:29:33.295Z,53.37
2023-03-12T20:32:00.813Z,54.40
2023-03-12T20:34:28.990Z,59.17
2023-03-12T20:36:59.034Z,65.53
2023-03-12T20:39:26.759Z,56.73
2023-03-12T20:41:54.431Z,42.40
2023-03-12T20:44:21.907Z,63.50
2023-03-12T20:46:49.500Z,36.83
2023-03-12T20:49:16.969Z,67.20
2023-03-12T20:51:45.217Z,50.47
2023-03-12T20:54:12.918Z,42.47
2023-03-12T20:56:43.686Z,52.60
2023-03-12T20:59:12.107Z,46.57
2023-03-12T21:01:39.775Z,44.53
2023-03-12T21:04:07.414Z,47.10
2023-03-12T21:06:35.109Z,63.23
2023-03-12T21:09:03.125Z,58.77
2023-03-12T21:11:31.532Z,59.37
2023-03-12T21:13:59.313Z,42.80
2023-03-12T21:16:32.836Z,43.53
2023-03-12T21:19:01.192Z,51.27
2023-03-12T21:21:30.632Z,49.07
2023-03-12T21:23:58.189Z,42.90
2023-03-12T21:26:25.728Z,43.43
2023-03-12T21:28:53.204Z,49.90
2023-03-12T21:31:20.949Z,51.07
2023-03-12T21:33:49.528Z,43.87
2023-03-12T21:36:17.402Z,39.27
2023-03-12T21:38:45.238Z,39.23
2023-03-12T21:41:14.293Z,37.80
2023-03-12T21:43:42.178Z,51.13
2023-03-12T21:46:10.791Z,49.10
2023-03-12T21:48:38.861Z,51.67
2023-03-12T21:51:07.687Z,47.70
2023-03-12T21:53:35.768Z,48.37
2023-03-12T21:56:04.047Z,34.07
2023-03-12T21:58:31.956Z,43.27
2023-03-12T22:01:03.376Z,45.13
2023-03-12T22:03:30.865Z,48.97
2023-03-12T22:05:58.414Z,46.17
2023-03-12T22:08:26.000Z,36.60
2023-03-12T22:10:53.500Z,44.00
2023-03-12T22:13:21.073Z,48.10
2023-03-12T22:15:56.004Z,40.83
2023-03-12T22:18:23.857Z,51.37
2023-03-12T22:20:54.929Z,64.17
2023-03-12T22:23:22.937Z,41.60
2023-03-12T22:25:50.457Z,49.00
2023-03-12T22:28:18.099Z,44.67
2023-03-12T22:30:45.774Z,35.57
2023-03-12T22:33:13.684Z,36.77
2023-03-12T22:35:47.903Z,47.33
2023-03-12T22:38:15.372Z,35.27
2023-03-12T22:40:43.236Z,43.47
2023-03-12T22:43:10.668Z,36.83
2023-03-12T22:45:38.099Z,46.07
2023-03-12T22:48:05.632Z,38.00
2023-03-12T22:50:33.100Z,29.30
2023-03-12T22:53:00.656Z,46.40
2023-03-12T22:55:28.119Z,37.27
2023-03-12T22:57:55.486Z,44.00
2023-03-12T23:00:23.132Z,37.27
2023-03-12T23:02:51.137Z,49.93
2023-03-12T23:05:18.650Z,40.30
2023-03-12T23:07:46.147Z,51.93
2023-03-12T23:10:13.562Z,40.67
2023-03-12T23:12:41.017Z,38.10
2023-03-12T23:15:08.677Z,39.83
2023-03-12T23:17:36.514Z,33.20
2023-03-12T23:20:04.723Z,38.97
2023-03-12T23:22:33.517Z,35.33
2023-03-12T23:25:00.937Z,32.87
2023-03-12T23:27:28.392Z,43.90
2023-03-12T23:29:55.854Z,37.70
2023-03-12T23:32:23.672Z,47.27
2023-03-12T23:34:51.189Z,38.47
2023-03-12T23:37:18.666Z,39.27
2023-03-12T23:39:54.375Z,40.63
2023-03-12T23:42:22.959Z,31.70
2023-03-12T23:44:50.322Z,33.57
2023-03-12T23:47:17.794Z,30.37
2023-03-12T23:49:45.235Z,34.70
2023-03-12T23:52:12.720Z,37.83
2023-03-12T23:54:40.134Z,35.37
2023-03-12T23:57:07.558Z,22.57
2023-03-12T23:59:34.964Z,32.90
